sensor_id;sensor_type;location;lat;lon;timestamp;P1;durP1;ratioP1;P2;durP2;ratioP2
23498;SDS011;11926;48.120;11.562;2023-03-14T00:02:01;0.55;;;0.28;;
23498;SDS011;11926;48.120;11.562;2023-03-14T00:04:48;1.08;;;0.30;;
23498;SDS011;11926;48.120;11.562;2023-03-14T00:07:36;1.10;;;0.30;;
23498;SDS011;11926;48.120;11.562;2023-03-14T00:10:27;0.75;;;0.30;;
23498;SDS011;11926;48.120;11.562;2023-03-14T00:13:14;2.53;;;0.35;;
23498;SDS011;11926;48.120;11.562;2023-03-14T00:16:02;1.27;;;0.40;;
23498;SDS011;11926;48.120;11.562;2023-03-14T00:18:51;0.40;;;0.30;;
23498;SDS011;11926;48.120;11.562;2023-03-14T00:21:39;0.90;;;0.30;;
23498;SDS011;11926;48.120;11.562;2023-03-14T00:24:26;1.80;;;0.50;;
23498;SDS011;11926;48.120;11.562;2023-03-14T00:27:15;2.25;;;0.35;;
23498;SDS011;11926;48.120;11.562;2023-03-14T00:30:03;0.38;;;0.30;;
23498;SDS011;11926;48.120;11.562;2023-03-14T00:32:53;0.85;;;0.40;;
23498;SDS011;11926;48.120;11.562;2023-03-14T00:35:41;0.70;;;0.40;;
23498;SDS011;11926;48.120;11.562;2023-03-14T00:38:29;1.02;;;0.30;;
23498;SDS011;11926;48.120;11.562;2023-03-14T00:41:18;3.25;;;0.47;;
23498;SDS011;11926;48.120;11.562;2023-03-14T00:44:09;0.77;;;0.20;;
23498;SDS011;11926;48.120;11.562;2023-03-14T00:46:56;2.60;;;0.30;;
23498;SDS011;11926;48.120;11.562;2023-03-14T00:49:44;0.75;;;0.32;;
23498;SDS011;11926;48.120;11.562;2023-03-14T00:52:32;0.93;;;0.38;;
23498;SDS011;11926;48.120;11.562;2023-03-14T00:55:20;1.55;;;0.40;;
23498;SDS011;11926;48.120;11.562;2023-03-14T00:58:07;1.50;;;0.40;;
23498;SDS011;11926;48.120;11.562;2023-03-14T01:00:56;1.23;;;0.32;;
23498;SDS011;11926;48.120;11.562;2023-03-14T01:03:44;1.23;;;0.43;;
23498;SDS011;11926;48.120;11.562;2023-03-14T01:06:34;1.20;;;0.50;;
23498;SDS011;11926;48.120;11.562;2023-03-14T01:09:21;0.82;;;0.40;;
23498;SDS011;11926;48.120;11.562;2023-03-14T01:12:09;0.60;;;0.25;;
23498;SDS011;11926;48.120;11.562;2023-03-14T01:15:00;0.35;;;0.20;;
23498;SDS011;11926;48.120;11.562;2023-03-14T01:17:49;1.05;;;0.30;;
23498;SDS011;11926;48.120;11.562;2023-03-14T01:20:37;0.30;;;0.20;;
23498;SDS011;11926;48.120;11.562;2023-03-14T01:23:24;1.67;;;0.57;;
23498;SDS011;11926;48.120;11.562;2023-03-14T01:26:14;4.72;;;0.63;;
23498;SDS011;11926;48.120;11.562;2023-03-14T01:29:04;2.92;;;0.50;;
23498;SDS011;11926;48.120;11.562;2023-03-14T01:31:56;3.00;;;0.40;;
23498;SDS011;11926;48.120;11.562;2023-03-14T01:34:46;4.05;;;0.47;;
23498;SDS011;11926;48.120;11.562;2023-03-14T01:37:34;3.33;;;0.43;;
23498;SDS011;11926;48.120;11.562;2023-03-14T01:40:26;4.05;;;0.80;;
23498;SDS011;11926;48.120;11.562;2023-03-14T01:43:15;3.67;;;0.95;;
23498;SDS011;11926;48.120;11.562;2023-03-14T01:46:14;8.02;;;0.93;;
23498;SDS011;11926;48.120;11.562;2023-03-14T01:49:11;1.80;;;0.70;;
23498;SDS011;11926;48.120;11.562;2023-03-14T01:52:15;4.95;;;0.68;;
23498;SDS011;11926;48.120;11.562;2023-03-14T01:55:07;2.35;;;0.65;;
23498;SDS011;11926;48.120;11.562;2023-03-14T01:58:00;7.33;;;0.97;;
23498;SDS011;11926;48.120;11.562;2023-03-14T02:00:51;4.78;;;1.10;;
23498;SDS011;11926;48.120;11.562;2023-03-14T02:03:43;1.77;;;0.70;;
23498;SDS011;11926;48.120;11.562;2023-03-14T02:06:37;2.58;;;0.60;;
23498;SDS011;11926;48.120;11.562;2023-03-14T02:09:35;3.13;;;0.60;;
23498;SDS011;11926;48.120;11.562;2023-03-14T02:12:28;0.98;;;0.47;;
23498;SDS011;11926;48.120;11.562;2023-03-14T02:15:36;2.97;;;1.05;;
23498;SDS011;11926;48.120;11.562;2023-03-14T02:18:33;1.85;;;0.60;;
23498;SDS011;11926;48.120;11.562;2023-03-14T02:21:44;2.97;;;0.40;;
23498;SDS011;11926;48.120;11.562;2023-03-14T02:24:40;5.60;;;0.60;;
23498;SDS011;11926;48.120;11.562;2023-03-14T02:27:33;3.60;;;0.52;;
23498;SDS011;11926;48.120;11.562;2023-03-14T02:30:22;1.27;;;0.22;;
23498;SDS011;11926;48.120;11.562;2023-03-14T02:33:13;3.78;;;0.40;;
23498;SDS011;11926;48.120;11.562;2023-03-14T02:36:05;1.10;;;0.40;;
23498;SDS011;11926;48.120;11.562;2023-03-14T02:39:01;1.67;;;0.28;;
23498;SDS011;11926;48.120;11.562;2023-03-14T02:42:00;3.75;;;0.28;;
23498;SDS011;11926;48.120;11.562;2023-03-14T02:44:52;0.82;;;0.30;;
23498;SDS011;11926;48.120;11.562;2023-03-14T02:47:43;0.40;;;0.30;;
23498;SDS011;11926;48.120;11.562;2023-03-14T02:50:35;1.55;;;1.13;;
23498;SDS011;11926;48.120;11.562;2023-03-14T02:53:25;0.38;;;0.30;;
23498;SDS011;11926;48.120;11.562;2023-03-14T02:56:18;2.03;;;0.40;;
23498;SDS011;11926;48.120;11.562;2023-03-14T02:59:07;2.22;;;0.30;;
23498;SDS011;11926;48.120;11.562;2023-03-14T03:02:04;0.80;;;0.30;;
23498;SDS011;11926;48.120;11.562;2023-03-14T03:04:52;0.63;;;0.30;;
23498;SDS011;11926;48.120;11.562;2023-03-14T03:07:40;1.05;;;0.43;;
23498;SDS011;11926;48.120;11.562;2023-03-14T03:10:29;0.20;;;0.10;;
23498;SDS011;11926;48.120;11.562;2023-03-14T03:13:18;0.30;;;0.20;;
23498;SDS011;11926;48.120;11.562;2023-03-14T03:19:02;0.13;;;0.10;;
23498;SDS011;11926;48.120;11.562;2023-03-14T03:21:50;0.57;;;0.30;;
23498;SDS011;11926;48.120;11.562;2023-03-14T03:24:38;0.85;;;0.25;;
23498;SDS011;11926;48.120;11.562;2023-03-14T03:27:26;0.75;;;0.20;;
23498;SDS011;11926;48.120;11.562;2023-03-14T03:30:16;1.13;;;0.25;;
23498;SDS011;11926;48.120;11.562;2023-03-14T03:33:05;0.25;;;0.10;;
23498;SDS011;11926;48.120;11.562;2023-03-14T03:35:56;0.57;;;0.22;;
23498;SDS011;11926;48.120;11.562;2023-03-14T03:38:48;0.32;;;0.20;;
23498;SDS011;11926;48.120;11.562;2023-03-14T03:41:37;0.50;;;0.20;;
23498;SDS011;11926;48.120;11.562;2023-03-14T03:44:25;0.10;;;0.10;;
23498;SDS011;11926;48.120;11.562;2023-03-14T03:47:13;0.10;;;0.10;;
23498;SDS011;11926;48.120;11.562;2023-03-14T03:50:01;1.25;;;0.30;;
23498;SDS011;11926;48.120;11.562;2023-03-14T03:52:52;0.70;;;0.20;;
23498;SDS011;11926;48.120;11.562;2023-03-14T03:55:40;0.10;;;0.10;;
23498;SDS011;11926;48.120;11.562;2023-03-14T03:58:29;0.20;;;0.20;;
23498;SDS011;11926;48.120;11.562;2023-03-14T04:01:17;0.20;;;0.20;;
23498;SDS011;11926;48.120;11.562;2023-03-14T04:04:09;0.15;;;0.10;;
23498;SDS011;11926;48.120;11.562;2023-03-14T04:06:57;0.35;;;0.20;;
23498;SDS011;11926;48.120;11.562;2023-03-14T04:09:47;0.20;;;0.20;;
23498;SDS011;11926;48.120;11.562;2023-03-14T04:12:42;1.15;;;0.10;;
23498;SDS011;11926;48.120;11.562;2023-03-14T04:18:34;0.00;;;0.00;;
23498;SDS011;11926;48.120;11.562;2023-03-14T04:21:21;2.05;;;0.10;;
23498;SDS011;11926;48.120;11.562;2023-03-14T04:24:14;1.65;;;0.10;;
23498;SDS011;11926;48.120;11.562;2023-03-14T04:27:07;0.22;;;0.10;;
23498;SDS011;11926;48.120;11.562;2023-03-14T04:29:55;0.10;;;0.10;;
23498;SDS011;11926;48.120;11.562;2023-03-14T04:33:02;1.40;;;0.30;;
23498;SDS011;11926;48.120;11.562;2023-03-14T04:35:53;0.10;;;0.10;;
23498;SDS011;11926;48.120;11.562;2023-03-14T04:38:43;0.30;;;0.20;;
23498;SDS011;11926;48.120;11.562;2023-03-14T04:41:35;0.40;;;0.13;;
23498;SDS011;11926;48.120;11.562;2023-03-14T04:44:25;1.48;;;0.10;;
23498;SDS011;11926;48.120;11.562;2023-03-14T04:47:13;0.55;;;0.13;;
23498;SDS011;11926;48.120;11.562;2023-03-14T04:50:03;0.00;;;0.00;;
23498;SDS011;11926;48.120;11.562;2023-03-14T04:52:52;0.32;;;0.13;;
23498;SDS011;11926;48.120;11.562;2023-03-14T04:55:40;0.38;;;0.15;;
23498;SDS011;11926;48.120;11.562;2023-03-14T04:58:29;0.22;;;0.20;;
23498;SDS011;11926;48.120;11.562;2023-03-14T05:01:19;0.57;;;0.25;;
23498;SDS011;11926;48.120;11.562;2023-03-14T05:04:28;1.00;;;0.20;;
23498;SDS011;11926;48.120;11.562;2023-03-14T05:07:21;0.30;;;0.20;;
23498;SDS011;11926;48.120;11.562;2023-03-14T05:10:12;0.85;;;0.10;;
23498;SDS011;11926;48.120;11.562;2023-03-14T05:13:19;0.25;;;0.10;;
23498;SDS011;11926;48.120;11.562;2023-03-14T05:16:08;0.75;;;0.10;;
23498;SDS011;11926;48.120;11.562;2023-03-14T05:19:05;0.32;;;0.17;;
23498;SDS011;11926;48.120;11.562;2023-03-14T05:21:53;0.35;;;0.10;;
23498;SDS011;11926;48.120;11.562;2023-03-14T05:25:01;0.20;;;0.20;;
23498;SDS011;11926;48.120;11.562;2023-03-14T05:28:04;0.25;;;0.13;;
23498;SDS011;11926;48.120;11.562;2023-03-14T05:30:56;1.13;;;0.10;;
23498;SDS011;11926;48.120;11.562;2023-03-14T05:33:59;0.13;;;0.13;;
23498;SDS011;11926;48.120;11.562;2023-03-14T05:37:00;0.45;;;0.20;;
23498;SDS011;11926;48.120;11.562;2023-03-14T05:40:07;0.90;;;0.20;;
23498;SDS011;11926;48.120;11.562;2023-03-14T05:42:56;0.68;;;0.22;;
23498;SDS011;11926;48.120;11.562;2023-03-14T05:45:59;0.25;;;0.13;;
23498;SDS011;11926;48.120;11.562;2023-03-14T05:48:59;1.33;;;0.40;;
23498;SDS011;11926;48.120;11.562;2023-03-14T05:52:09;1.00;;;0.30;;
23498;SDS011;11926;48.120;11.562;2023-03-14T05:55:17;0.73;;;0.30;;
23498;SDS011;11926;48.120;11.562;2023-03-14T05:58:17;0.20;;;0.20;;
23498;SDS011;11926;48.120;11.562;2023-03-14T06:01:14;0.70;;;0.20;;
23498;SDS011;11926;48.120;11.562;2023-03-14T06:04:03;2.03;;;0.40;;
23498;SDS011;11926;48.120;11.562;2023-03-14T06:06:52;0.88;;;0.30;;
23498;SDS011;11926;48.120;11.562;2023-03-14T06:09:42;0.22;;;0.20;;
23498;SDS011;11926;48.120;11.562;2023-03-14T06:12:33;0.52;;;0.35;;
23498;SDS011;11926;48.120;11.562;2023-03-14T06:15:21;0.20;;;0.10;;
23498;SDS011;11926;48.120;11.562;2023-03-14T06:18:12;0.73;;;0.20;;
23498;SDS011;11926;48.120;11.562;2023-03-14T06:21:01;0.13;;;0.13;;
23498;SDS011;11926;48.120;11.562;2023-03-14T06:23:49;0.85;;;0.30;;
23498;SDS011;11926;48.120;11.562;2023-03-14T06:26:41;0.35;;;0.20;;
23498;SDS011;11926;48.120;11.562;2023-03-14T06:29:31;0.52;;;0.25;;
23498;SDS011;11926;48.120;11.562;2023-03-14T06:32:20;1.85;;;0.40;;
23498;SDS011;11926;48.120;11.562;2023-03-14T06:35:12;0.55;;;0.40;;
23498;SDS011;11926;48.120;11.562;2023-03-14T06:38:01;0.75;;;0.40;;
23498;SDS011;11926;48.120;11.562;2023-03-14T06:40:50;0.55;;;0.20;;
23498;SDS011;11926;48.120;11.562;2023-03-14T06:43:50;1.60;;;0.45;;
23498;SDS011;11926;48.120;11.562;2023-03-14T06:46:41;0.73;;;0.30;;
23498;SDS011;11926;48.120;11.562;2023-03-14T06:49:30;0.55;;;0.25;;
23498;SDS011;11926;48.120;11.562;2023-03-14T06:52:19;0.10;;;0.10;;
23498;SDS011;11926;48.120;11.562;2023-03-14T06:55:07;1.27;;;0.43;;
23498;SDS011;11926;48.120;11.562;2023-03-14T06:57:57;0.75;;;0.30;;
23498;SDS011;11926;48.120;11.562;2023-03-14T07:00:47;0.68;;;0.30;;
23498;SDS011;11926;48.120;11.562;2023-03-14T07:03:41;0.52;;;0.22;;
23498;SDS011;11926;48.120;11.562;2023-03-14T07:06:29;1.23;;;0.40;;
23498;SDS011;11926;48.120;11.562;2023-03-14T07:09:17;2.90;;;0.40;;
23498;SDS011;11926;48.120;11.562;2023-03-14T07:12:15;3.33;;;0.47;;
23498;SDS011;11926;48.120;11.562;2023-03-14T07:15:04;0.77;;;0.40;;
23498;SDS011;11926;48.120;11.562;2023-03-14T07:18:12;2.40;;;0.45;;
23498;SDS011;11926;48.120;11.562;2023-03-14T07:21:00;1.08;;;0.40;;
23498;SDS011;11926;48.120;11.562;2023-03-14T07:23:49;1.70;;;0.32;;
23498;SDS011;11926;48.120;11.562;2023-03-14T07:26:40;1.05;;;0.47;;
23498;SDS011;11926;48.120;11.562;2023-03-14T07:29:28;1.30;;;0.32;;
23498;SDS011;11926;48.120;11.562;2023-03-14T07:32:20;1.70;;;0.60;;
23498;SDS011;11926;48.120;11.562;2023-03-14T07:35:09;0.30;;;0.17;;
23498;SDS011;11926;48.120;11.562;2023-03-14T07:37:59;0.75;;;0.20;;
23498;SDS011;11926;48.120;11.562;2023-03-14T07:40:57;1.85;;;0.38;;
23498;SDS011;11926;48.120;11.562;2023-03-14T07:43:50;0.57;;;0.28;;
23498;SDS011;11926;48.120;11.562;2023-03-14T07:46:39;1.25;;;0.38;;
23498;SDS011;11926;48.120;11.562;2023-03-14T07:49:27;0.20;;;0.20;;
23498;SDS011;11926;48.120;11.562;2023-03-14T07:52:17;1.55;;;0.40;;
23498;SDS011;11926;48.120;11.562;2023-03-14T07:55:05;2.25;;;0.30;;
23498;SDS011;11926;48.120;11.562;2023-03-14T07:57:53;0.73;;;0.30;;
23498;SDS011;11926;48.120;11.562;2023-03-14T08:00:41;0.63;;;0.30;;
23498;SDS011;11926;48.120;11.562;2023-03-14T08:03:29;2.70;;;0.40;;
23498;SDS011;11926;48.120;11.562;2023-03-14T08:06:16;0.32;;;0.22;;
23498;SDS011;11926;48.120;11.562;2023-03-14T08:09:05;0.30;;;0.20;;
23498;SDS011;11926;48.120;11.562;2023-03-14T08:11:53;0.65;;;0.28;;
23498;SDS011;11926;48.120;11.562;2023-03-14T08:14:42;0.60;;;0.10;;
23498;SDS011;11926;48.120;11.562;2023-03-14T08:17:29;1.73;;;0.28;;
23498;SDS011;11926;48.120;11.562;2023-03-14T08:20:17;0.80;;;0.40;;
23498;SDS011;11926;48.120;11.562;2023-03-14T08:23:05;1.35;;;0.50;;
23498;SDS011;11926;48.120;11.562;2023-03-14T08:25:53;3.38;;;0.20;;
23498;SDS011;11926;48.120;11.562;2023-03-14T08:28:41;3.92;;;0.43;;
23498;SDS011;11926;48.120;11.562;2023-03-14T08:31:29;1.63;;;0.20;;
23498;SDS011;11926;48.120;11.562;2023-03-14T08:34:16;1.83;;;0.22;;
23498;SDS011;11926;48.120;11.562;2023-03-14T08:37:04;0.75;;;0.25;;
23498;SDS011;11926;48.120;11.562;2023-03-14T08:40:08;0.70;;;0.22;;
23498;SDS011;11926;48.120;11.562;2023-03-14T08:42:58;2.78;;;0.90;;
23498;SDS011;11926;48.120;11.562;2023-03-14T08:45:46;0.90;;;0.30;;
23498;SDS011;11926;48.120;11.562;2023-03-14T08:48:34;0.77;;;0.20;;
23498;SDS011;11926;48.120;11.562;2023-03-14T08:51:22;2.85;;;0.50;;
23498;SDS011;11926;48.120;11.562;2023-03-14T08:54:10;1.27;;;0.40;;
23498;SDS011;11926;48.120;11.562;2023-03-14T08:56:58;1.85;;;0.30;;
23498;SDS011;11926;48.120;11.562;2023-03-14T08:59:47;0.85;;;0.35;;
23498;SDS011;11926;48.120;11.562;2023-03-14T09:02:34;2.20;;;0.25;;
23498;SDS011;11926;48.120;11.562;2023-03-14T09:05:22;1.13;;;0.43;;
23498;SDS011;11926;48.120;11.562;2023-03-14T09:08:09;1.05;;;0.28;;
23498;SDS011;11926;48.120;11.562;2023-03-14T09:10:57;0.80;;;0.30;;
23498;SDS011;11926;48.120;11.562;2023-03-14T09:13:45;0.68;;;0.30;;
23498;SDS011;11926;48.120;11.562;2023-03-14T09:16:35;0.52;;;0.25;;
23498;SDS011;11926;48.120;11.562;2023-03-14T09:19:22;2.05;;;0.30;;
23498;SDS011;11926;48.120;11.562;2023-03-14T09:22:10;0.28;;;0.25;;
23498;SDS011;11926;48.120;11.562;2023-03-14T09:24:57;0.77;;;0.32;;
23498;SDS011;11926;48.120;11.562;2023-03-14T09:27:45;3.20;;;0.45;;
23498;SDS011;11926;48.120;11.562;2023-03-14T09:30:32;1.83;;;0.60;;
23498;SDS011;11926;48.120;11.562;2023-03-14T09:33:21;1.70;;;0.40;;
23498;SDS011;11926;48.120;11.562;2023-03-14T09:36:09;1.55;;;0.35;;
23498;SDS011;11926;48.120;11.562;2023-03-14T09:38:56;1.85;;;0.30;;
23498;SDS011;11926;48.120;11.562;2023-03-14T09:41:44;1.02;;;0.40;;
23498;SDS011;11926;48.120;11.562;2023-03-14T09:44:34;1.45;;;0.38;;
23498;SDS011;11926;48.120;11.562;2023-03-14T09:47:25;1.67;;;0.30;;
23498;SDS011;11926;48.120;11.562;2023-03-14T09:50:15;2.00;;;0.60;;
23498;SDS011;11926;48.120;11.562;2023-03-14T09:53:03;3.70;;;0.52;;
23498;SDS011;11926;48.120;11.562;2023-03-14T09:55:53;1.80;;;0.60;;
23498;SDS011;11926;48.120;11.562;2023-03-14T09:58:43;2.13;;;0.55;;
23498;SDS011;11926;48.120;11.562;2023-03-14T10:01:34;2.00;;;0.98;;
23498;SDS011;11926;48.120;11.562;2023-03-14T10:04:23;4.38;;;0.52;;
23498;SDS011;11926;48.120;11.562;2023-03-14T10:07:13;4.38;;;0.93;;
23498;SDS011;11926;48.120;11.562;2023-03-14T10:10:08;2.42;;;0.80;;
23498;SDS011;11926;48.120;11.562;2023-03-14T10:12:58;2.13;;;0.80;;
23498;SDS011;11926;48.120;11.562;2023-03-14T10:15:50;1.63;;;0.50;;
23498;SDS011;11926;48.120;11.562;2023-03-14T10:18:39;1.83;;;0.50;;
23498;SDS011;11926;48.120;11.562;2023-03-14T10:21:35;0.80;;;0.30;;
23498;SDS011;11926;48.120;11.562;2023-03-14T10:24:28;1.52;;;0.50;;
23498;SDS011;11926;48.120;11.562;2023-03-14T10:27:18;1.33;;;0.30;;
23498;SDS011;11926;48.120;11.562;2023-03-14T10:30:26;0.60;;;0.20;;
23498;SDS011;11926;48.120;11.562;2023-03-14T10:33:20;1.27;;;0.40;;
23498;SDS011;11926;48.120;11.562;2023-03-14T10:36:17;1.80;;;0.40;;
23498;SDS011;11926;48.120;11.562;2023-03-14T10:39:21;1.70;;;0.22;;
23498;SDS011;11926;48.120;11.562;2023-03-14T10:42:16;1.60;;;0.30;;
23498;SDS011;11926;48.120;11.562;2023-03-14T10:48:18;0.85;;;0.32;;
23498;SDS011;11926;48.120;11.562;2023-03-14T10:51:10;1.20;;;0.20;;
23498;SDS011;11926;48.120;11.562;2023-03-14T10:54:00;4.15;;;0.30;;
23498;SDS011;11926;48.120;11.562;2023-03-14T10:56:56;3.13;;;0.47;;
23498;SDS011;11926;48.120;11.562;2023-03-14T10:59:47;0.93;;;0.40;;
23498;SDS011;11926;48.120;11.562;2023-03-14T11:02:39;2.67;;;0.22;;
23498;SDS011;11926;48.120;11.562;2023-03-14T11:05:38;3.13;;;0.40;;
23498;SDS011;11926;48.120;11.562;2023-03-14T11:08:35;3.60;;;0.43;;
23498;SDS011;11926;48.120;11.562;2023-03-14T11:11:27;1.63;;;0.40;;
23498;SDS011;11926;48.120;11.562;2023-03-14T11:14:20;3.58;;;0.30;;
23498;SDS011;11926;48.120;11.562;2023-03-14T11:17:16;1.95;;;0.30;;
23498;SDS011;11926;48.120;11.562;2023-03-14T11:20:16;1.27;;;0.40;;
23498;SDS011;11926;48.120;11.562;2023-03-14T11:23:12;0.50;;;0.20;;
23498;SDS011;11926;48.120;11.562;2023-03-14T11:26:08;0.22;;;0.15;;
23498;SDS011;11926;48.120;11.562;2023-03-14T11:29:09;0.17;;;0.17;;
23498;SDS011;11926;48.120;11.562;2023-03-14T11:32:11;1.48;;;0.20;;
23498;SDS011;11926;48.120;11.562;2023-03-14T11:35:04;2.72;;;0.30;;
23498;SDS011;11926;48.120;11.562;2023-03-14T11:38:05;2.70;;;0.30;;
23498;SDS011;11926;48.120;11.562;2023-03-14T11:41:00;0.45;;;0.20;;
23498;SDS011;11926;48.120;11.562;2023-03-14T11:43:54;1.98;;;0.30;;
23498;SDS011;11926;48.120;11.562;2023-03-14T11:46:48;1.95;;;0.50;;
23498;SDS011;11926;48.120;11.562;2023-03-14T11:49:40;0.95;;;0.20;;
23498;SDS011;11926;48.120;11.562;2023-03-14T11:52:37;0.60;;;0.32;;
23498;SDS011;11926;48.120;11.562;2023-03-14T11:58:20;0.93;;;0.20;;
23498;SDS011;11926;48.120;11.562;2023-03-14T12:01:12;2.50;;;0.30;;
23498;SDS011;11926;48.120;11.562;2023-03-14T12:04:05;1.48;;;0.40;;
23498;SDS011;11926;48.120;11.562;2023-03-14T12:07:02;3.50;;;0.68;;
23498;SDS011;11926;48.120;11.562;2023-03-14T12:12:44;1.50;;;0.20;;
23498;SDS011;11926;48.120;11.562;2023-03-14T12:15:32;0.55;;;0.25;;
23498;SDS011;11926;48.120;11.562;2023-03-14T12:18:30;2.00;;;0.50;;
23498;SDS011;11926;48.120;11.562;2023-03-14T12:21:20;0.20;;;0.10;;
23498;SDS011;11926;48.120;11.562;2023-03-14T12:24:14;0.20;;;0.20;;
23498;SDS011;11926;48.120;11.562;2023-03-14T12:27:10;1.83;;;0.20;;
23498;SDS011;11926;48.120;11.562;2023-03-14T12:30:25;0.20;;;0.20;;
23498;SDS011;11926;48.120;11.562;2023-03-14T12:33:20;0.57;;;0.20;;
23498;SDS011;11926;48.120;11.562;2023-03-14T12:36:19;1.20;;;0.20;;
23498;SDS011;11926;48.120;11.562;2023-03-14T12:39:37;1.20;;;0.10;;
23498;SDS011;11926;48.120;11.562;2023-03-14T12:42:37;0.68;;;0.15;;
23498;SDS011;11926;48.120;11.562;2023-03-14T12:45:31;0.28;;;0.17;;
23498;SDS011;11926;48.120;11.562;2023-03-14T12:48:20;0.43;;;0.10;;
23498;SDS011;11926;48.120;11.562;2023-03-14T12:51:12;0.35;;;0.10;;
23498;SDS011;11926;48.120;11.562;2023-03-14T12:54:08;0.65;;;0.17;;
23498;SDS011;11926;48.120;11.562;2023-03-14T12:57:11;3.80;;;0.30;;
23498;SDS011;11926;48.120;11.562;2023-03-14T13:00:18;0.45;;;0.20;;
23498;SDS011;11926;48.120;11.562;2023-03-14T13:03:15;1.75;;;0.13;;
23498;SDS011;11926;48.120;11.562;2023-03-14T13:06:08;1.85;;;0.20;;
23498;SDS011;11926;48.120;11.562;2023-03-14T13:08:58;2.28;;;0.20;;
23498;SDS011;11926;48.120;11.562;2023-03-14T13:12:23;4.90;;;0.20;;
23498;SDS011;11926;48.120;11.562;2023-03-14T13:15:21;0.98;;;0.25;;
23498;SDS011;11926;48.120;11.562;2023-03-14T13:18:13;0.73;;;0.15;;
23498;SDS011;11926;48.120;11.562;2023-03-14T13:21:05;0.30;;;0.10;;
23498;SDS011;11926;48.120;11.562;2023-03-14T13:23:59;0.52;;;0.20;;
23498;SDS011;11926;48.120;11.562;2023-03-14T13:26:47;0.20;;;0.20;;
23498;SDS011;11926;48.120;11.562;2023-03-14T13:29:35;1.63;;;0.98;;
23498;SDS011;11926;48.120;11.562;2023-03-14T13:32:25;0.32;;;0.20;;
23498;SDS011;11926;48.120;11.562;2023-03-14T13:35:15;1.00;;;0.20;;
23498;SDS011;11926;48.120;11.562;2023-03-14T13:38:05;2.33;;;0.13;;
23498;SDS011;11926;48.120;11.562;2023-03-14T13:41:05;0.20;;;0.10;;
23498;SDS011;11926;48.120;11.562;2023-03-14T13:43:56;0.30;;;0.20;;
23498;SDS011;11926;48.120;11.562;2023-03-14T13:46:50;0.93;;;0.20;;
23498;SDS011;11926;48.120;11.562;2023-03-14T13:49:39;0.10;;;0.10;;
23498;SDS011;11926;48.120;11.562;2023-03-14T13:52:28;0.50;;;0.20;;
23498;SDS011;11926;48.120;11.562;2023-03-14T13:55:17;0.20;;;0.10;;
23498;SDS011;11926;48.120;11.562;2023-03-14T13:58:10;0.22;;;0.20;;
23498;SDS011;11926;48.120;11.562;2023-03-14T14:01:06;0.28;;;0.10;;
23498;SDS011;11926;48.120;11.562;2023-03-14T14:04:02;0.95;;;0.10;;
23498;SDS011;11926;48.120;11.562;2023-03-14T14:06:57;2.08;;;0.57;;
23498;SDS011;11926;48.120;11.562;2023-03-14T14:09:47;0.63;;;0.10;;
23498;SDS011;11926;48.120;11.562;2023-03-14T14:12:38;0.65;;;0.20;;
23498;SDS011;11926;48.120;11.562;2023-03-14T14:15:33;1.70;;;0.30;;
23498;SDS011;11926;48.120;11.562;2023-03-14T14:18:26;0.93;;;0.30;;
23498;SDS011;11926;48.120;11.562;2023-03-14T14:21:15;2.00;;;0.30;;
23498;SDS011;11926;48.120;11.562;2023-03-14T14:24:04;1.48;;;0.50;;
23498;SDS011;11926;48.120;11.562;2023-03-14T14:26:53;0.80;;;0.20;;
23498;SDS011;11926;48.120;11.562;2023-03-14T14:32:43;1.83;;;0.45;;
23498;SDS011;11926;48.120;11.562;2023-03-14T14:35:32;1.73;;;0.40;;
23498;SDS011;11926;48.120;11.562;2023-03-14T14:38:21;0.20;;;0.10;;
23498;SDS011;11926;48.120;11.562;2023-03-14T14:41:11;1.10;;;0.20;;
23498;SDS011;11926;48.120;11.562;2023-03-14T14:43:59;3.67;;;0.32;;
23498;SDS011;11926;48.120;11.562;2023-03-14T14:46:47;2.67;;;0.30;;
23498;SDS011;11926;48.120;11.562;2023-03-14T14:49:35;1.55;;;0.20;;
23498;SDS011;11926;48.120;11.562;2023-03-14T14:52:32;3.00;;;0.35;;
23498;SDS011;11926;48.120;11.562;2023-03-14T14:55:28;0.82;;;0.20;;
23498;SDS011;11926;48.120;11.562;2023-03-14T14:58:22;0.88;;;0.28;;
23498;SDS011;11926;48.120;11.562;2023-03-14T15:01:13;0.87;;;0.20;;
23498;SDS011;11926;48.120;11.562;2023-03-14T15:04:04;0.13;;;0.13;;
23498;SDS011;11926;48.120;11.562;2023-03-14T15:06:58;1.58;;;0.30;;
23498;SDS011;11926;48.120;11.562;2023-03-14T15:09:45;2.58;;;0.20;;
23498;SDS011;11926;48.120;11.562;2023-03-14T15:12:33;0.70;;;0.35;;
23498;SDS011;11926;48.120;11.562;2023-03-14T15:15:21;0.65;;;0.30;;
23498;SDS011;11926;48.120;11.562;2023-03-14T15:18:11;0.25;;;0.17;;
23498;SDS011;11926;48.120;11.562;2023-03-14T15:21:00;0.38;;;0.20;;
23498;SDS011;11926;48.120;11.562;2023-03-14T15:23:48;1.27;;;0.30;;
23498;SDS011;11926;48.120;11.562;2023-03-14T15:26:36;0.40;;;0.20;;
23498;SDS011;11926;48.120;11.562;2023-03-14T15:29:23;1.05;;;0.50;;
23498;SDS011;11926;48.120;11.562;2023-03-14T15:32:16;0.82;;;0.30;;
23498;SDS011;11926;48.120;11.562;2023-03-14T15:35:05;0.93;;;0.30;;
23498;SDS011;11926;48.120;11.562;2023-03-14T15:37:53;0.60;;;0.30;;
23498;SDS011;11926;48.120;11.562;2023-03-14T15:40:41;1.55;;;0.38;;
23498;SDS011;11926;48.120;11.562;2023-03-14T15:43:28;3.88;;;0.40;;
23498;SDS011;11926;48.120;11.562;2023-03-14T15:46:16;1.17;;;0.47;;
23498;SDS011;11926;48.120;11.562;2023-03-14T15:49:07;2.25;;;0.50;;
23498;SDS011;11926;48.120;11.562;2023-03-14T15:51:55;1.83;;;0.60;;
23498;SDS011;11926;48.120;11.562;2023-03-14T15:54:43;2.65;;;1.05;;
23498;SDS011;11926;48.120;11.562;2023-03-14T15:57:30;2.25;;;0.80;;
23498;SDS011;11926;48.120;11.562;2023-03-14T16:00:18;2.45;;;0.60;;
23498;SDS011;11926;48.120;11.562;2023-03-14T16:03:08;2.83;;;0.68;;
23498;SDS011;11926;48.120;11.562;2023-03-14T16:05:58;1.17;;;0.70;;
23498;SDS011;11926;48.120;11.562;2023-03-14T16:08:46;1.60;;;0.90;;
23498;SDS011;11926;48.120;11.562;2023-03-14T16:11:33;3.55;;;0.60;;
23498;SDS011;11926;48.120;11.562;2023-03-14T16:14:21;2.60;;;0.80;;
23498;SDS011;11926;48.120;11.562;2023-03-14T16:17:09;1.42;;;0.50;;
23498;SDS011;11926;48.120;11.562;2023-03-14T16:19:57;4.38;;;0.63;;
23498;SDS011;11926;48.120;11.562;2023-03-14T16:22:46;2.08;;;0.70;;
23498;SDS011;11926;48.120;11.562;2023-03-14T16:25:34;4.25;;;0.77;;
23498;SDS011;11926;48.120;11.562;2023-03-14T16:28:21;1.35;;;0.57;;
23498;SDS011;11926;48.120;11.562;2023-03-14T16:31:10;2.63;;;0.52;;
23498;SDS011;11926;48.120;11.562;2023-03-14T16:34:00;2.55;;;0.50;;
23498;SDS011;11926;48.120;11.562;2023-03-14T16:36:49;2.67;;;0.60;;
23498;SDS011;11926;48.120;11.562;2023-03-14T16:39:38;3.92;;;0.68;;
23498;SDS011;11926;48.120;11.562;2023-03-14T16:42:45;3.67;;;0.60;;
23498;SDS011;11926;48.120;11.562;2023-03-14T16:45:53;1.75;;;0.57;;
23498;SDS011;11926;48.120;11.562;2023-03-14T16:48:43;3.50;;;0.70;;
23498;SDS011;11926;48.120;11.562;2023-03-14T16:51:31;1.83;;;0.50;;
23498;SDS011;11926;48.120;11.562;2023-03-14T16:54:19;2.83;;;0.60;;
23498;SDS011;11926;48.120;11.562;2023-03-14T16:57:08;2.45;;;0.80;;
23498;SDS011;11926;48.120;11.562;2023-03-14T16:59:56;3.75;;;0.75;;
23498;SDS011;11926;48.120;11.562;2023-03-14T17:02:44;2.55;;;0.63;;
23498;SDS011;11926;48.120;11.562;2023-03-14T17:05:32;1.67;;;0.60;;
23498;SDS011;11926;48.120;11.562;2023-03-14T17:08:20;2.47;;;0.70;;
23498;SDS011;11926;48.120;11.562;2023-03-14T17:11:09;1.02;;;0.50;;
23498;SDS011;11926;48.120;11.562;2023-03-14T17:13:59;0.93;;;0.40;;
23498;SDS011;11926;48.120;11.562;2023-03-14T17:16:48;2.10;;;0.50;;